Hauptseite
METAR-TAF:

METAR-TAF

Flughäfen :

Funchal, Madeira, Portugal

Flughafen Madeira

Breite: 32-41-52N, Länge: 016-46-28W, Höhe: 59 m

Beobachtung

Neuester Wetterbericht von vor 1 Stunde und 10 Minuten, um 11:30 UTC
Wind 6 kt aus unterschiedlichen Richtungen
Temperatur 25°C
Luftfeuchtigkeit 57%
Luftdruck 1023 hPa
Sichtweite 10 km oder mehr
Leicht bewölkt in der Höhe von 1600 ft
Durchbrochene Bewölkung in der Höhe von 3300 ft

METAR: LPMA 201130Z VRB06KT 9999 FEW016 BKN033 25/16 Q1023

Zeit: 13:40 (12:40 UTC)

Prognose

Neuester Wetterbericht von vor 1 Stunde und 40 Minuten, um 11:00 UTC
Gültige Prognose vom 20 um 12 UTC bis 21 um 12 UTC
Wind 10 kt aus Nord
Sichtweite 10 km oder mehr
Aufgelockert bewölkt in der Höhe von 1500 ft
Zeitweise
vom 20 um 12 UTC bis 21 um 12 UTC
Wind 5 kt aus unterschiedlichen Richtungen

TAF: LPMA 201100Z 2012/2112 36010KT 9999 SCT015 TEMPO 2012/2112 VRB05KT

Wetterbeobachtungen und Prognosen von mehr als 4000 Flughäfen (METAR und TAF Bericht).

Die verfügbaren Stationen werden durch gelbe und rote Markierungen auf der Karte dargestellt.

Führen Sie die Maus auf sie, um den Namen der Station zu sehen.

Darauf klicken, um die Beobachtung von Wetterbeobachtungen und Prognosen zu sehen.

Um die Karte zu ändern : klicken Sie auf den grünen Tasten mit einem schwarzen Kreuz Zum Vergrößern, auf den grünen Button mit einem Gedankenstrich zu verkleinern, oder auf die grünen Pfeile für benachbarte Karten.


METAR-TAF: